Ottertail, Minnesota
Current Conditions -  °F | °C
As of 9:53 PM on Friday 19 Dec 2014 (Local Time) from KADC Reporting Station
Haze Haze  
Wind Chill: -5°   Ceiling: 400
Heat Index: -2°   Visibility: 3mi
Dew Point: -2°   Wind: 6mph
Humidity: 100%   Direction: 180°S
Pressure: 30.04"   Gusts: NA
Location:  46.43°N, 95.56°W
Report Text: KADC 200353Z AUTO 18005KT 3SM BR OVC004 M02/M02 A3004 RMK AO2
Loading
Personal Weather Stations






























Interactive Weather Map New forecast layout! Learn more

10-Day Weather Forecast

Advertisements
Track Severe Weather on mobile